Terminal Aerodrome Forecast
Issued by NWS

Home | Current Version | Previous Version | Text Only | Print | Product List | Glossary On
Versions: 1 2 3 4 5 6 7 8 9 10 11 12 13
000
FTUS44 KTSA 271725
TAFFYV
TAF
KFYV 271725Z 2718/2818 31006KT P6SM VCTS SCT030CB BKN070
     FM280100 14003KT P6SM SCT050 BKN250
     FM281000 00000KT 3SM BR BKN250
     FM281400 00000KT P6SM SCT025 SCT250=

USA.gov is the U.S. government's official web portal to all federal, state and local government web resources and services.